AQR weather

Atoka Municipal Airport
Atoka, Oklahoma, United States

Public forecast

Using degrees Fahrenheit for public forecast. Weather courtesy of forecast.io.

METAR (pilot weather report)

Retrieved 2019/05/20 23:35 UTC (19 minutes ago):

KAQR 202335Z AUTO 14007KT 060V160 10SM SCT032 SCT039 BKN060 27/23 A2961 RMK AO2

TAF (pilot weather forecast)

Closest forecast is Mc Alester Regional Airport, 34.2 nm (63.3 km) NNE. Retrieved 2019/05/20 18:34 UTC (5 hours ago):

TAF KMLC 201732Z 2018/2118 15012G18KT P6SM VCSH BKN015 TEMPO 2020/2024 VRB15G35KT 2SM +TSRA BKN025CB FM210000 16013G20KT P6SM VCTS BKN025CB TEMPO 2100/2104 VRB15G30KT 2SM +TSRA BKN015CB FM210400 16014G22KT P6SM BKN025 TEMPO 2111/2115 3SM TSRA BKN015CB FM211500 18015G25KT 6SM -TSRA BKN025CB